Terminal Aerodrome Forecast
Issued by NWS

Home | Current Version | Previous Version | Text Only | Print | Product List | Glossary On
Versions: 1 2 3 4 5 6 7 8 9 10 11 12
000
FTUS44 KTSA 050500
TAFXNA
TAF
KXNA 050520Z 0506/0606 17005KT P6SM SCT250 WS020/17030KT
     FM051500 17011G20KT P6SM SCT100 BKN250
     FM051900 17011G20KT P6SM BKN050
     FM060000 16009KT P6SM SCT060 BKN250=

USA.gov is the U.S. government's official web portal to all federal, state and local government web resources and services.